Time;durP1;ratioP1;P1;durP2;ratioP2;P2;SDS_P1;SDS_P2;PMS_P1;PMS_P2;Temp;Humidity;BMP_temperature;BMP_pressure;BME280_temperature;BME280_humidity;BME280_pressure;Samples;Min_cycle;Max_cycle;Signal;HPM_P1;HPM_P2
2021/08/20 03:45:30;;;;;;;3.72;2.10;;;;;;;;;;5870108;23;20055;-82
2021/08/20 03:47:56;;;;;;;4.27;1.87;;;;;;;;;;4903269;29;20039;-83
2021/08/20 03:50:23;;;;;;;4.30;2.10;;;;;;;;;;4903329;29;20539;-83
2021/08/20 03:52:48;;;;;;;4.47;2.00;;;;;;;;;;4917885;29;20031;-82
2021/08/20 03:55:13;;;;;;;4.00;1.80;;;;;;;;;;4887009;29;20134;-82
2021/08/20 03:57:39;;;;;;;3.90;2.07;;;;;;;;;;4919021;29;20035;-83
2021/08/20 04:00:06;;;;;;;3.27;1.73;;;;;;;;;;4903131;29;20083;-82
2021/08/20 04:02:31;;;;;;;5.65;2.17;;;;;;;;;;4902860;29;20024;-84
2021/08/20 04:04:57;;;;;;;3.80;2.10;;;;;;;;;;4918802;29;20051;-84
2021/08/20 04:07:22;;;;;;;5.47;2.10;;;;;;;;;;4911513;29;20115;-83
2021/08/20 04:09:48;;;;;;;4.23;2.10;;;;;;;;;;4901308;29;20035;-84
2021/08/20 04:12:14;;;;;;;4.77;2.13;;;;;;;;;;4900556;29;20027;-84
2021/08/20 04:14:39;;;;;;;4.05;2.20;;;;;;;;;;4896810;29;20032;-84
2021/08/20 04:17:05;;;;;;;4.10;2.10;;;;;;;;;;4918362;29;20023;-84
2021/08/20 04:19:30;;;;;;;3.93;1.87;;;;;;;;;;4887078;29;20515;-84
2021/08/20 04:21:55;;;;;;;5.93;2.30;;;;;;;;;;4886653;29;20032;-84
2021/08/20 04:24:21;;;;;;;6.23;2.30;;;;;;;;;;4887060;29;20035;-84
2021/08/20 04:26:46;;;;;;;4.57;2.10;;;;;;;;;;4902731;29;20023;-87
2021/08/20 04:29:12;;;;;;;3.60;1.80;;;;;;;;;;4902499;29;20118;-84
2021/08/20 04:31:37;;;;;;;3.20;1.80;;;;;;;;;;4918273;29;20067;-83
2021/08/20 04:34:02;;;;;;;5.80;2.00;;;;;;;;;;4902563;29;20086;-84
2021/08/20 04:36:28;;;;;;;5.20;2.10;;;;;;;;;;4902250;29;20106;-85
2021/08/20 04:38:53;;;;;;;5.07;2.10;;;;;;;;;;4902217;29;20118;-84
2021/08/20 04:41:19;;;;;;;6.10;2.20;;;;;;;;;;4902457;29;20032;-85
2021/08/20 04:43:44;;;;;;;4.40;2.30;;;;;;;;;;4887093;29;20117;-85
2021/08/20 04:46:09;;;;;;;3.80;1.90;;;;;;;;;;4902096;29;20122;-84
2021/08/20 04:48:35;;;;;;;4.03;1.97;;;;;;;;;;4886826;29;20460;-85
2021/08/20 04:51:00;;;;;;;4.53;2.00;;;;;;;;;;4902244;29;20042;-86
2021/08/20 04:53:32;;;;;;;6.70;2.10;;;;;;;;;;4885258;29;20090;-84
2021/08/20 04:55:57;;;;;;;3.72;2.08;;;;;;;;;;4893187;29;20031;-86
2021/08/20 04:58:23;;;;;;;4.27;1.90;;;;;;;;;;4918387;29;20389;-86
2021/08/20 05:00:49;;;;;;;3.30;1.73;;;;;;;;;;4886049;29;20455;-86
2021/08/20 05:03:14;;;;;;;4.27;2.07;;;;;;;;;;4901814;29;20095;-87
2021/08/20 05:05:44;;;;;;;3.87;2.10;;;;;;;;;;4898599;29;20020;-87
2021/08/20 05:08:13;;;;;;;3.97;2.03;;;;;;;;;;4888648;29;20035;-92
2021/08/20 05:10:38;;;;;;;4.70;1.92;;;;;;;;;;4902662;29;20034;-90
2021/08/20 05:13:05;;;;;;;6.57;1.97;;;;;;;;;;4902266;29;20126;-88
2021/08/20 05:15:30;;;;;;;5.22;1.90;;;;;;;;;;4902269;29;20482;-86
2021/08/20 05:17:56;;;;;;;3.57;1.80;;;;;;;;;;4909333;29;20050;-84
2021/08/20 05:20:21;;;;;;;5.17;2.10;;;;;;;;;;4883205;29;20024;-85
2021/08/20 05:22:51;;;;;;;4.53;1.90;;;;;;;;;;4883084;29;20384;-83
2021/08/20 05:25:16;;;;;;;5.13;1.90;;;;;;;;;;4882639;29;20020;-85
2021/08/20 05:27:42;;;;;;;4.53;2.07;;;;;;;;;;4883079;29;20032;-85
2021/08/20 05:30:09;;;;;;;3.83;2.00;;;;;;;;;;4883082;29;20595;-84
2021/08/20 05:32:34;;;;;;;4.22;2.22;;;;;;;;;;4883208;29;20043;-85
2021/08/20 05:35:00;;;;;;;4.27;2.03;;;;;;;;;;4882923;29;20406;-84
2021/08/20 05:37:34;;;;;;;4.60;1.97;;;;;;;;;;4885838;29;20023;-86
2021/08/20 05:40:49;;;;;;;3.67;1.98;;;;;;;;;;4901331;29;20118;-86
2021/08/20 05:54:43;;;;;;;7.35;2.30;;;;;;;;;;4856715;29;20424;-87
2021/08/20 05:58:04;;;;;;;4.85;2.03;;;;;;;;;;4801737;29;20047;-87
2021/08/20 06:01:16;;;;;;;5.18;2.03;;;;;;;;;;4748024;30;20052;-88
2021/08/20 06:10:47;;;;;;;4.00;2.03;;;;;;;;;;4734513;30;20070;-83
2021/08/20 06:26:38;;;;;;;4.55;2.08;;;;;;;;;;4865387;29;20051;-86
2021/08/20 06:29:03;;;;;;;6.07;2.30;;;;;;;;;;4832442;29;20033;-85
2021/08/20 06:31:29;;;;;;;3.73;2.10;;;;;;;;;;4831914;29;20112;-85
2021/08/20 06:33:58;;;;;;;4.93;2.40;;;;;;;;;;4877743;29;20060;-85
2021/08/20 06:36:25;;;;;;;3.67;1.90;;;;;;;;;;4901717;29;20099;-89
2021/08/20 07:22:51;;;;;;;4.88;1.92;;;;;;;;;;4936042;29;20130;-86
2021/08/20 07:25:16;;;;;;;6.77;2.40;;;;;;;;;;4903736;29;20450;-87
2021/08/20 07:27:41;;;;;;;5.20;2.37;;;;;;;;;;4903833;29;20122;-87
2021/08/20 07:30:07;;;;;;;6.93;2.73;;;;;;;;;;4903916;29;20028;-87
2021/08/20 07:32:33;;;;;;;5.00;2.53;;;;;;;;;;4911940;29;20031;-86
2021/08/20 07:34:58;;;;;;;3.93;1.90;;;;;;;;;;4884906;29;20028;-86
2021/08/20 07:37:23;;;;;;;4.20;1.97;;;;;;;;;;4885117;29;20487;-86
2021/08/20 07:39:49;;;;;;;4.03;2.00;;;;;;;;;;4884883;29;20122;-86
2021/08/20 08:39:40;;;;;;;4.03;1.90;;;;;;;;;;4934564;29;20046;-85
2021/08/20 08:58:55;;;;;;;4.32;2.15;;;;;;;;;;4935181;29;20123;-85
2021/08/20 09:01:36;;;;;;;3.97;2.00;;;;;;;;;;4917206;29;20031;-86
2021/08/20 09:04:39;;;;;;;5.32;2.33;;;;;;;;;;4918113;29;20036;-87
2021/08/20 09:34:02;;;;;;;2.70;1.60;;;;;;;;;;4919559;29;20046;-87
2021/08/20 10:03:20;;;;;;;2.05;1.20;;;;;;;;;;4949910;23;20071;-61
2021/08/20 10:05:46;;;;;;;2.22;1.27;;;;;;;;;;4884453;29;20544;-55
2021/08/20 10:08:15;;;;;;;2.85;1.10;;;;;;;;;;4882351;29;20119;-60
2021/08/20 10:10:45;;;;;;;3.25;1.42;;;;;;;;;;4899451;29;20388;-62
2021/08/20 10:13:13;;;;;;;2.70;1.25;;;;;;;;;;4900255;29;20119;-61
2021/08/20 10:15:39;;;;;;;1.90;1.17;;;;;;;;;;4901600;29;20028;-61
2021/08/20 10:18:06;;;;;;;;;;;;;;;;;;4918560;29;20477;-60
2021/08/20 10:20:33;;;;;;;2.72;1.48;;;;;;;;;;4917754;29;20253;-59
2021/08/20 10:22:58;;;;;;;3.30;1.50;;;;;;;;;;4917463;29;20485;-60
2021/08/20 10:25:24;;;;;;;3.25;1.35;;;;;;;;;;4898728;29;20083;-63
2021/08/20 10:27:52;;;;;;;2.53;1.17;;;;;;;;;;4899524;29;20405;-64
2021/08/20 10:30:18;;;;;;;2.45;1.20;;;;;;;;;;4884725;29;20375;-63
2021/08/20 10:32:59;;;;;;;3.53;1.40;;;;;;;;;;4883430;29;20118;-62
2021/08/20 10:35:47;;;;;;;5.22;1.50;;;;;;;;;;4916759;29;20760;-61
2021/08/20 10:38:43;;;;;;;4.05;1.48;;;;;;;;;;4915861;29;20051;-63
2021/08/20 10:41:19;;;;;;;3.47;1.30;;;;;;;;;;4879977;29;20404;-62
2021/08/20 10:43:51;;;;;;;4.97;1.40;;;;;;;;;;4898731;29;20456;-63
2021/08/20 10:46:32;;;;;;;3.15;1.40;;;;;;;;;;4917073;29;20024;-59
2021/08/20 10:49:14;;;;;;;3.20;1.70;;;;;;;;;;4915582;29;20036;-59
2021/08/20 10:51:51;;;;;;;4.50;2.00;;;;;;;;;;4916268;29;20092;-61
2021/08/20 10:54:24;;;;;;;4.85;1.67;;;;;;;;;;4915588;29;20111;-59
2021/08/20 10:56:49;;;;;;;4.85;1.90;;;;;;;;;;4916538;29;20024;-59
2021/08/20 10:59:39;;;;;;;3.83;1.90;;;;;;;;;;4899023;29;20036;-59
2021/08/20 11:02:46;;;;;;;4.15;2.10;;;;;;;;;;4915520;29;20264;-66
2021/08/20 11:05:12;;;;;;;4.53;2.08;;;;;;;;;;4905563;29;20032;-63
2021/08/20 11:07:41;;;;;;;3.22;1.70;;;;;;;;;;4883754;29;20039;-57
2021/08/20 11:10:09;;;;;;;3.97;1.83;;;;;;;;;;4916167;29;20024;-54
2021/08/20 11:12:43;;;;;;;4.65;1.60;;;;;;;;;;4915115;29;20103;-59
2021/08/20 11:15:17;;;;;;;4.07;1.38;;;;;;;;;;4916401;29;20492;-60
2021/08/20 11:17:47;;;;;;;4.05;1.40;;;;;;;;;;4916028;29;20485;-61
2021/08/20 11:20:37;;;;;;;2.92;1.30;;;;;;;;;;4914259;29;20503;-63
2021/08/20 11:23:15;;;;;;;2.80;1.63;;;;;;;;;;4901048;29;20032;-62
2021/08/20 11:25:44;;;;;;;2.78;1.50;;;;;;;;;;4915906;29;20489;-61
2021/08/20 11:28:28;;;;;;;4.03;1.60;;;;;;;;;;4915402;29;20473;-60
2021/08/20 11:31:06;;;;;;;2.25;1.40;;;;;;;;;;4914906;29;20067;-61
2021/08/20 11:33:42;;;;;;;3.17;1.52;;;;;;;;;;4899187;29;20024;-60
2021/08/20 11:36:13;;;;;;;4.13;1.50;;;;;;;;;;4898107;29;20515;-61
2021/08/20 11:38:42;;;;;;;2.15;1.20;;;;;;;;;;4899443;29;20040;-60
2021/08/20 11:41:23;;;;;;;2.08;1.10;;;;;;;;;;4897579;29;20034;-60
2021/08/20 11:43:52;;;;;;;3.20;1.48;;;;;;;;;;4915441;29;20087;-61
2021/08/20 11:46:17;;;;;;;3.78;1.40;;;;;;;;;;4914697;29;20020;-61
2021/08/20 11:48:56;;;;;;;2.43;1.07;;;;;;;;;;4915990;29;20032;-60
2021/08/20 11:51:45;;;;;;;3.35;1.60;;;;;;;;;;4898270;29;20363;-62
2021/08/20 11:54:12;;;;;;;50.22;3.25;;;;;;;;;;4915026;29;20040;-61
2021/08/20 11:56:41;;;;;;;7.85;1.58;;;;;;;;;;4898828;29;20028;-61
2021/08/20 11:59:10;;;;;;;7.40;1.67;;;;;;;;;;4883544;29;20028;-61
2021/08/20 12:01:38;;;;;;;3.45;1.30;;;;;;;;;;4915001;29;20042;-63
2021/08/20 12:04:03;;;;;;;2.83;1.33;;;;;;;;;;4882619;29;20464;-60
2021/08/20 12:06:29;;;;;;;3.65;1.40;;;;;;;;;;4915029;29;20103;-64
2021/08/20 12:08:57;;;;;;;2.25;1.30;;;;;;;;;;4914095;29;20040;-63
2021/08/20 12:11:25;;;;;;;3.40;1.30;;;;;;;;;;4897627;29;20119;-64
2021/08/20 12:13:52;;;;;;;3.67;1.10;;;;;;;;;;4897605;29;20504;-63
2021/08/20 12:16:39;;;;;;;2.35;1.10;;;;;;;;;;4880591;29;20032;-61
2021/08/20 12:19:21;;;;;;;5.43;1.38;;;;;;;;;;4897291;29;20047;-63
2021/08/20 12:21:48;;;;;;;2.30;1.15;;;;;;;;;;4913245;29;20737;-63
2021/08/20 12:24:15;;;;;;;2.00;1.13;;;;;;;;;;4882213;29;20039;-61
2021/08/20 12:26:41;;;;;;;3.58;1.33;;;;;;;;;;4914406;29;20028;-62
2021/08/20 12:29:24;;;;;;;1.83;1.13;;;;;;;;;;4915199;29;20032;-59
2021/08/20 12:31:56;;;;;;;3.78;1.20;;;;;;;;;;4894992;29;20489;-62
2021/08/20 12:34:29;;;;;;;2.83;1.30;;;;;;;;;;4896127;29;20482;-62
2021/08/20 12:36:55;;;;;;;2.25;1.30;;;;;;;;;;4888236;29;20448;-62
2021/08/20 12:39:30;;;;;;;2.38;1.40;;;;;;;;;;4914102;29;20405;-62
2021/08/20 12:41:56;;;;;;;3.17;1.40;;;;;;;;;;4882315;29;20119;-61
2021/08/20 12:44:30;;;;;;;2.33;1.00;;;;;;;;;;4914398;29;20111;-61
2021/08/20 12:46:55;;;;;;;2.97;1.38;;;;;;;;;;4898333;29;20492;-60
2021/08/20 12:49:21;;;;;;;2.70;1.30;;;;;;;;;;4881764;29;20036;-59
2021/08/20 12:51:46;;;;;;;3.23;1.33;;;;;;;;;;4914693;29;20508;-62
2021/08/20 12:54:14;;;;;;;2.63;1.20;;;;;;;;;;4882100;29;20114;-62
2021/08/20 12:56:41;;;;;;;3.42;1.42;;;;;;;;;;4898158;29;20634;-62
2021/08/20 12:59:07;;;;;;;2.88;1.15;;;;;;;;;;4897926;29;20028;-62
2021/08/20 13:01:38;;;;;;;4.65;1.40;;;;;;;;;;4914277;29;20071;-62
2021/08/20 13:04:04;;;;;;;7.30;1.65;;;;;;;;;;4915149;29;20034;-61
2021/08/20 13:06:29;;;;;;;3.65;1.30;;;;;;;;;;4897709;29;20107;-60
2021/08/20 13:08:55;;;;;;;2.27;1.07;;;;;;;;;;4914638;29;20028;-62
2021/08/20 13:11:20;;;;;;;2.33;1.20;;;;;;;;;;4914014;29;20287;-62
2021/08/20 13:13:45;;;;;;;2.13;1.20;;;;;;;;;;4914684;29;20036;-62
2021/08/20 13:16:11;;;;;;;2.70;1.30;;;;;;;;;;4914704;29;20101;-62
2021/08/20 13:18:37;;;;;;;2.45;1.30;;;;;;;;;;4897536;29;20418;-62
2021/08/20 13:21:03;;;;;;;3.57;1.23;;;;;;;;;;4914095;29;20164;-62
2021/08/20 13:23:29;;;;;;;2.47;1.05;;;;;;;;;;4914009;29;20371;-62
2021/08/20 13:25:54;;;;;;;2.38;1.17;;;;;;;;;;4898145;29;20548;-58
2021/08/20 13:28:20;;;;;;;6.90;1.50;;;;;;;;;;4914785;29;20302;-62
2021/08/20 13:30:45;;;;;;;3.93;1.23;;;;;;;;;;4914029;29;20039;-56
2021/08/20 13:33:10;;;;;;;2.70;1.13;;;;;;;;;;4897620;29;20291;-60
2021/08/20 13:35:36;;;;;;;1.90;1.20;;;;;;;;;;4896951;29;20024;-62
2021/08/20 13:38:02;;;;;;;3.22;1.40;;;;;;;;;;4914936;29;20283;-62
2021/08/20 13:40:29;;;;;;;3.15;1.30;;;;;;;;;;4914117;29;20028;-62
2021/08/20 13:42:57;;;;;;;3.35;1.27;;;;;;;;;;4913888;29;20064;-60
2021/08/20 13:45:22;;;;;;;2.92;1.10;;;;;;;;;;4913383;29;20381;-60
2021/08/20 13:47:48;;;;;;;2.67;1.23;;;;;;;;;;4913581;29;20032;-61
2021/08/20 13:50:13;;;;;;;3.17;1.40;;;;;;;;;;4913316;29;20284;-59
2021/08/20 13:52:38;;;;;;;2.17;1.23;;;;;;;;;;4912712;29;20118;-60
2021/08/20 13:55:04;;;;;;;3.33;1.48;;;;;;;;;;4913096;29;20111;-60
2021/08/20 13:57:33;;;;;;;1.88;1.08;;;;;;;;;;4913775;29;20035;-62
2021/08/20 13:59:58;;;;;;;3.85;1.23;;;;;;;;;;4881443;29;20040;-61
2021/08/20 14:02:24;;;;;;;2.08;1.20;;;;;;;;;;4896194;29;20070;-57
2021/08/20 14:04:49;;;;;;;3.70;1.30;;;;;;;;;;4910356;29;20031;-60
2021/08/20 14:07:15;;;;;;;2.27;1.20;;;;;;;;;;4913887;29;20038;-62
2021/08/20 14:09:40;;;;;;;3.93;1.47;;;;;;;;;;4913509;29;20035;-61
2021/08/20 14:12:06;;;;;;;3.37;1.33;;;;;;;;;;4913737;29;20075;-59
2021/08/20 14:14:31;;;;;;;2.58;1.30;;;;;;;;;;4911855;29;20598;-62
2021/08/20 14:16:56;;;;;;;3.23;1.50;;;;;;;;;;4913522;29;20391;-62
2021/08/20 14:19:22;;;;;;;2.30;1.30;;;;;;;;;;4913468;29;20038;-57
2021/08/20 14:21:48;;;;;;;2.50;1.37;;;;;;;;;;4913186;29;20377;-62
2021/08/20 14:24:13;;;;;;;2.58;1.33;;;;;;;;;;4912917;29;20039;-62
2021/08/20 14:26:39;;;;;;;3.22;1.40;;;;;;;;;;4896151;29;20036;-61
2021/08/20 14:29:04;;;;;;;2.57;1.40;;;;;;;;;;4896635;29;20106;-59
2021/08/20 14:31:30;;;;;;;2.73;1.20;;;;;;;;;;4912623;29;20028;-62
2021/08/20 14:33:56;;;;;;;2.20;1.13;;;;;;;;;;4912507;29;20042;-59
2021/08/20 14:36:22;;;;;;;2.97;1.33;;;;;;;;;;4912918;29;20392;-59
2021/08/20 14:38:47;;;;;;;3.38;1.50;;;;;;;;;;4864550;29;20032;-61
2021/08/20 14:41:13;;;;;;;3.63;1.30;;;;;;;;;;4914367;29;20039;-62
2021/08/20 14:43:38;;;;;;;2.70;1.50;;;;;;;;;;4916354;29;20032;-60
2021/08/20 14:46:03;;;;;;;4.37;1.50;;;;;;;;;;4917170;29;20327;-60
2021/08/20 14:48:29;;;;;;;2.67;1.23;;;;;;;;;;4916262;29;20035;-61
2021/08/20 14:50:54;;;;;;;5.57;1.50;;;;;;;;;;4899345;29;20236;-56
2021/08/20 14:53:20;;;;;;;2.38;1.40;;;;;;;;;;4914804;29;20032;-60
2021/08/20 14:55:45;;;;;;;3.53;1.60;;;;;;;;;;4916100;29;20111;-62
2021/08/20 14:58:10;;;;;;;2.83;1.40;;;;;;;;;;4916116;29;20514;-60
2021/08/20 15:00:36;;;;;;;2.43;1.43;;;;;;;;;;4898922;29;20036;-61
2021/08/20 15:03:01;;;;;;;4.30;1.60;;;;;;;;;;4882469;29;20071;-62
2021/08/20 15:05:26;;;;;;;4.40;1.70;;;;;;;;;;4898634;29;20119;-62
2021/08/20 15:07:52;;;;;;;4.97;1.80;;;;;;;;;;4916397;29;20032;-60
2021/08/20 15:10:17;;;;;;;4.83;1.93;;;;;;;;;;4916357;29;20092;-61
2021/08/20 15:12:49;;;;;;;2.90;1.80;;;;;;;;;;4916226;29;20034;-62
2021/08/20 15:15:15;;;;;;;5.32;1.77;;;;;;;;;;4916281;29;20061;-59
2021/08/20 15:17:41;;;;;;;4.23;1.70;;;;;;;;;;4915381;29;20548;-60
2021/08/20 15:20:07;;;;;;;;;;;;;;;;;;4899832;29;20035;-61
2021/08/20 15:22:32;;;;;;;3.08;1.83;;;;;;;;;;4913294;29;20296;-62
2021/08/20 15:24:57;;;;;;;5.43;1.80;;;;;;;;;;4915600;29;20511;-60
2021/08/20 15:27:23;;;;;;;3.00;1.93;;;;;;;;;;4915685;29;20020;-59
2021/08/20 15:29:49;;;;;;;2.77;1.70;;;;;;;;;;4915699;29;20020;-62
2021/08/20 15:32:14;;;;;;;3.45;1.85;;;;;;;;;;4915094;29;20032;-59
2021/08/20 15:34:40;;;;;;;4.00;1.90;;;;;;;;;;4913562;29;20050;-62
2021/08/20 15:37:05;;;;;;;3.43;1.73;;;;;;;;;;4911192;29;20020;-56
2021/08/20 15:39:32;;;;;;;4.53;1.90;;;;;;;;;;4893836;29;20098;-61
2021/08/20 15:41:58;;;;;;;3.03;1.77;;;;;;;;;;4914146;29;20388;-61
2021/08/20 15:44:24;;;;;;;3.47;1.77;;;;;;;;;;4913734;29;20023;-58
2021/08/20 15:46:49;;;;;;;;;;;;;;;;;;4912815;29;20024;-62
2021/08/20 15:49:15;;;;;;;3.60;1.63;;;;;;;;;;4914384;29;19922;-62
2021/08/20 15:51:40;;;;;;;2.63;1.57;;;;;;;;;;4913960;29;20477;-58
2021/08/20 15:54:06;;;;;;;3.97;2.10;;;;;;;;;;4915434;29;20040;-59
2021/08/20 15:56:32;;;;;;;3.80;2.03;;;;;;;;;;4908219;29;20404;-60
2021/08/20 15:59:01;;;;;;;3.50;2.10;;;;;;;;;;4912529;29;20291;-58
2021/08/20 16:01:28;;;;;;;3.28;1.80;;;;;;;;;;4894119;29;20443;-61
2021/08/20 16:03:54;;;;;;;2.95;1.80;;;;;;;;;;4962851;23;20423;-52
2021/08/20 16:06:19;;;;;;;4.18;2.00;;;;;;;;;;4954049;29;20027;-48
2021/08/20 16:08:45;;;;;;;3.23;1.70;;;;;;;;;;4936806;29;20039;-53
2021/08/20 16:11:10;;;;;;;3.73;2.03;;;;;;;;;;4953713;29;20034;-54
2021/08/20 16:13:35;;;;;;;3.83;1.93;;;;;;;;;;4952652;29;20031;-48
2021/08/20 16:16:01;;;;;;;3.90;1.90;;;;;;;;;;4952351;29;20019;-48
2021/08/20 16:18:26;;;;;;;4.00;1.93;;;;;;;;;;4953275;29;20032;-55
2021/08/20 16:20:51;;;;;;;3.97;1.87;;;;;;;;;;4953474;29;20435;-48
2021/08/20 16:23:17;;;;;;;3.60;1.83;;;;;;;;;;4953793;29;20033;-49
2021/08/20 16:25:42;;;;;;;3.77;1.90;;;;;;;;;;4920765;29;20055;-48
2021/08/20 16:28:08;;;;;;;3.55;1.90;;;;;;;;;;4933380;29;20468;-48
2021/08/20 16:30:33;;;;;;;3.30;1.87;;;;;;;;;;4934162;29;20421;-48
2021/08/20 16:32:59;;;;;;;3.03;1.80;;;;;;;;;;4933225;29;20019;-51
2021/08/20 16:35:24;;;;;;;5.47;1.93;;;;;;;;;;4934248;29;20030;-48
2021/08/20 16:37:50;;;;;;;5.00;2.00;;;;;;;;;;4917677;29;20032;-48
2021/08/20 16:40:15;;;;;;;3.63;1.88;;;;;;;;;;4934519;29;20082;-49
2021/08/20 16:42:41;;;;;;;4.87;1.80;;;;;;;;;;4934394;29;20043;-55
2021/08/20 16:45:06;;;;;;;3.07;1.87;;;;;;;;;;4944417;29;20104;-49
2021/08/20 16:47:32;;;;;;;3.50;1.73;;;;;;;;;;4947087;29;20440;-48
2021/08/20 16:49:57;;;;;;;4.03;1.90;;;;;;;;;;4934407;29;20035;-52
2021/08/20 16:52:23;;;;;;;3.23;1.50;;;;;;;;;;4938814;29;20027;-50
2021/08/20 16:54:48;;;;;;;4.10;2.03;;;;;;;;;;4933059;29;20023;-50
2021/08/20 16:57:14;;;;;;;5.53;2.20;;;;;;;;;;4947223;29;20075;-60
2021/08/20 16:59:40;;;;;;;5.23;1.87;;;;;;;;;;4924224;29;20098;-57
2021/08/20 17:02:05;;;;;;;4.60;2.20;;;;;;;;;;4926520;29;20033;-51
2021/08/20 17:04:31;;;;;;;3.33;1.93;;;;;;;;;;4948835;29;20031;-53
2021/08/20 17:06:57;;;;;;;9.47;2.30;;;;;;;;;;4947641;29;20077;-53
2021/08/20 17:09:23;;;;;;;3.85;2.08;;;;;;;;;;4943627;29;21504;-50
2021/08/20 17:11:48;;;;;;;4.57;2.30;;;;;;;;;;4929927;29;20031;-55
2021/08/20 17:14:14;;;;;;;3.87;2.10;;;;;;;;;;4944981;29;20061;-48
2021/08/20 17:16:39;;;;;;;5.10;2.50;;;;;;;;;;4947257;28;20058;-53
2021/08/20 17:19:04;;;;;;;5.27;2.30;;;;;;;;;;4945824;29;20065;-60
2021/08/20 17:21:30;;;;;;;4.67;2.00;;;;;;;;;;4945581;29;20035;-52
2021/08/20 17:23:56;;;;;;;4.13;2.00;;;;;;;;;;4930490;29;20460;-48
2021/08/20 17:26:21;;;;;;;3.50;2.07;;;;;;;;;;4947389;29;20037;-50
2021/08/20 17:28:46;;;;;;;5.10;2.27;;;;;;;;;;4947103;29;20039;-53
2021/08/20 17:31:12;;;;;;;3.37;2.00;;;;;;;;;;4930010;29;20399;-50
2021/08/20 17:33:37;;;;;;;3.47;2.10;;;;;;;;;;4929272;29;20043;-53
2021/08/20 17:36:02;;;;;;;3.83;2.27;;;;;;;;;;4924989;29;20031;-51
2021/08/20 17:38:30;;;;;;;4.57;2.20;;;;;;;;;;4929942;29;20456;-51
2021/08/20 17:40:55;;;;;;;5.05;2.10;;;;;;;;;;4929543;29;20038;-59
2021/08/20 17:43:20;;;;;;;5.70;2.33;;;;;;;;;;4947076;29;20463;-50
2021/08/20 17:45:46;;;;;;;4.43;2.47;;;;;;;;;;4926828;29;20037;-59
2021/08/20 17:48:11;;;;;;;4.90;2.10;;;;;;;;;;4947038;29;20027;-48
2021/08/20 17:50:36;;;;;;;4.43;2.37;;;;;;;;;;4948719;29;20112;-56
2021/08/20 17:53:06;;;;;;;4.87;2.53;;;;;;;;;;4949511;29;20109;-56
2021/08/20 17:55:32;;;;;;;3.97;2.20;;;;;;;;;;4944714;29;20086;-49
2021/08/20 17:57:57;;;;;;;4.70;2.70;;;;;;;;;;4926008;29;20618;-48
2021/08/20 18:00:23;;;;;;;5.07;2.47;;;;;;;;;;4948736;28;20033;-48
2021/08/20 18:02:48;;;;;;;4.60;2.73;;;;;;;;;;4945744;28;20491;-56
2021/08/20 18:05:13;;;;;;;4.50;2.73;;;;;;;;;;4948201;28;20122;-48
2021/08/20 18:07:39;;;;;;;4.17;2.63;;;;;;;;;;4931064;28;20476;-49
2021/08/20 18:10:05;;;;;;;3.90;2.33;;;;;;;;;;4947511;28;20039;-51
2021/08/20 18:12:30;;;;;;;4.97;2.60;;;;;;;;;;4947873;28;20376;-51
2021/08/20 18:14:56;;;;;;;9.03;2.80;;;;;;;;;;4935876;29;20034;-49
2021/08/20 18:17:21;;;;;;;4.73;2.63;;;;;;;;;;4947839;28;20042;-54
2021/08/20 18:19:46;;;;;;;5.43;2.50;;;;;;;;;;4952469;28;20105;-55
2021/08/20 18:22:13;;;;;;;6.00;2.83;;;;;;;;;;4933495;29;20077;-62
2021/08/20 18:24:38;;;;;;;5.30;2.92;;;;;;;;;;4926446;29;20039;-48
2021/08/20 18:27:04;;;;;;;4.63;2.80;;;;;;;;;;4948530;28;20027;-56
2021/08/20 18:29:30;;;;;;;6.03;3.03;;;;;;;;;;4949064;28;20031;-51
2021/08/20 18:31:55;;;;;;;4.30;2.80;;;;;;;;;;4935144;29;20077;-54
2021/08/20 18:34:21;;;;;;;7.90;3.27;;;;;;;;;;4948458;28;20066;-50
2021/08/20 18:36:46;;;;;;;6.78;2.75;;;;;;;;;;4915990;28;20035;-54
2021/08/20 18:39:12;;;;;;;6.03;3.10;;;;;;;;;;4948442;28;20043;-48
2021/08/20 18:41:38;;;;;;;6.80;3.42;;;;;;;;;;4948672;28;20031;-51
2021/08/20 18:44:07;;;;;;;5.13;2.87;;;;;;;;;;4931117;29;20146;-50
2021/08/20 18:46:33;;;;;;;6.32;3.28;;;;;;;;;;4929515;28;20019;-48
2021/08/20 18:48:58;;;;;;;5.28;2.92;;;;;;;;;;4948650;28;20031;-53
2021/08/20 18:51:24;;;;;;;5.57;2.77;;;;;;;;;;4948658;28;20027;-53
2021/08/20 18:53:49;;;;;;;5.27;3.10;;;;;;;;;;4948175;28;20035;-50
2021/08/20 18:56:14;;;;;;;9.77;2.97;;;;;;;;;;4932701;29;20023;-48
2021/08/20 18:58:40;;;;;;;6.53;3.10;;;;;;;;;;4934435;29;20115;-56
2021/08/20 19:01:06;;;;;;;6.90;2.80;;;;;;;;;;4950856;28;20444;-55
2021/08/20 19:03:32;;;;;;;5.97;3.25;;;;;;;;;;4934157;28;20062;-48
2021/08/20 19:05:57;;;;;;;6.07;3.50;;;;;;;;;;4927176;29;20114;-50
2021/08/20 19:08:22;;;;;;;6.43;3.47;;;;;;;;;;4951062;28;20573;-53
2021/08/20 19:10:48;;;;;;;6.33;3.50;;;;;;;;;;4950315;28;20175;-48
2021/08/20 19:13:13;;;;;;;8.90;3.57;;;;;;;;;;4950573;28;20023;-49
2021/08/20 19:15:38;;;;;;;7.17;3.23;;;;;;;;;;4949955;29;20448;-59
2021/08/20 19:18:04;;;;;;;8.50;3.50;;;;;;;;;;4951225;28;20027;-47
2021/08/20 19:20:30;;;;;;;7.83;3.33;;;;;;;;;;4917202;28;20094;-48
2021/08/20 19:22:55;;;;;;;6.10;3.40;;;;;;;;;;4934766;28;20053;-54
2021/08/20 19:25:20;;;;;;;8.20;3.60;;;;;;;;;;4929300;29;20027;-55
2021/08/20 19:27:46;;;;;;;7.37;3.60;;;;;;;;;;4929697;29;20377;-53
2021/08/20 19:30:12;;;;;;;7.13;3.53;;;;;;;;;;4924612;29;20017;-55
2021/08/20 19:32:41;;;;;;;6.90;3.47;;;;;;;;;;4932431;28;20042;-52
2021/08/20 19:35:07;;;;;;;7.50;4.05;;;;;;;;;;4946730;28;20035;-58
2021/08/20 19:37:32;;;;;;;6.60;3.50;;;;;;;;;;4946947;28;20027;-50
2021/08/20 19:39:58;;;;;;;6.97;3.57;;;;;;;;;;4944104;28;20037;-56
2021/08/20 19:42:23;;;;;;;6.37;3.53;;;;;;;;;;4948649;28;20047;-50
2021/08/20 19:44:48;;;;;;;6.50;3.60;;;;;;;;;;4915312;29;20752;-56
2021/08/20 19:47:14;;;;;;;6.80;3.80;;;;;;;;;;4948187;28;20038;-60
2021/08/20 19:49:39;;;;;;;6.47;4.00;;;;;;;;;;4946934;29;20031;-54
2021/08/20 19:52:05;;;;;;;6.93;3.90;;;;;;;;;;4951679;28;20027;-48
2021/08/20 19:54:30;;;;;;;8.73;4.17;;;;;;;;;;4946904;28;20078;-62
2021/08/20 19:56:55;;;;;;;8.13;4.10;;;;;;;;;;4942162;29;20039;-61
2021/08/20 20:05:15;;;;;;;6.18;3.78;;;;;;;;;;4936726;29;20090;-92
2021/08/20 20:07:41;;;;;;;7.28;3.88;;;;;;;;;;4912048;29;20059;-84
2021/08/20 20:10:07;;;;;;;7.03;3.77;;;;;;;;;;4918794;29;20106;-84
2021/08/20 20:12:33;;;;;;;12.40;3.95;;;;;;;;;;4933428;29;20036;-84
2021/08/20 20:14:59;;;;;;;9.40;3.90;;;;;;;;;;4919514;29;20024;-84
2021/08/20 20:17:25;;;;;;;8.38;3.92;;;;;;;;;;4920979;29;20529;-85
2021/08/20 20:19:50;;;;;;;7.57;4.03;;;;;;;;;;4920575;29;20065;-84
2021/08/20 20:22:16;;;;;;;6.93;3.87;;;;;;;;;;4920634;29;20034;-84
2021/08/20 20:24:41;;;;;;;9.47;4.23;;;;;;;;;;4921011;29;20031;-85
2021/08/20 20:27:06;;;;;;;7.57;4.07;;;;;;;;;;4921512;29;20118;-84
2021/08/20 20:29:32;;;;;;;6.80;3.67;;;;;;;;;;4921113;29;20027;-84
2021/08/20 20:32:04;;;;;;;7.60;3.67;;;;;;;;;;4921774;29;20401;-84
2021/08/20 20:34:29;;;;;;;7.72;3.55;;;;;;;;;;4922698;29;20031;-86
2021/08/20 20:37:01;;;;;;;7.53;3.47;;;;;;;;;;4921202;29;20069;-84
2021/08/20 20:39:27;;;;;;;7.95;3.83;;;;;;;;;;4938276;29;20027;-84
2021/08/20 20:41:52;;;;;;;7.80;4.37;;;;;;;;;;4906375;29;20030;-85
2021/08/20 20:44:17;;;;;;;7.63;3.97;;;;;;;;;;4922688;29;20521;-84
2021/08/20 20:46:43;;;;;;;9.87;4.23;;;;;;;;;;4906691;29;20122;-84
2021/08/20 20:49:08;;;;;;;8.50;4.20;;;;;;;;;;4920071;29;20094;-84
2021/08/20 20:51:35;;;;;;;10.40;4.60;;;;;;;;;;4903779;29;20475;-84
2021/08/20 20:54:00;;;;;;;8.18;3.80;;;;;;;;;;4904286;29;20038;-84
2021/08/20 20:56:26;;;;;;;12.47;4.23;;;;;;;;;;4909647;29;20028;-84
2021/08/20 20:58:51;;;;;;;7.97;4.60;;;;;;;;;;4903731;29;20020;-84
2021/08/20 21:01:21;;;;;;;7.67;3.90;;;;;;;;;;4918656;29;20119;-84
2021/08/20 21:03:47;;;;;;;7.78;4.10;;;;;;;;;;4901008;29;20028;-84
2021/08/20 21:06:12;;;;;;;7.63;4.20;;;;;;;;;;4902689;29;20554;-84
2021/08/20 21:08:38;;;;;;;8.50;4.47;;;;;;;;;;4902905;29;20032;-84
2021/08/20 21:11:10;;;;;;;8.63;4.67;;;;;;;;;;4905535;29;20114;-84
2021/08/20 21:13:36;;;;;;;8.82;4.90;;;;;;;;;;4937363;29;20027;-83
2021/08/20 21:16:01;;;;;;;12.57;4.47;;;;;;;;;;4921550;29;20023;-84
2021/08/20 21:18:26;;;;;;;9.70;4.03;;;;;;;;;;4921402;29;20143;-84
2021/08/20 21:20:52;;;;;;;11.97;4.80;;;;;;;;;;4921165;29;22002;-84
2021/08/20 21:23:17;;;;;;;10.87;5.17;;;;;;;;;;4921086;29;20031;-84
2021/08/20 21:25:43;;;;;;;9.97;4.90;;;;;;;;;;4921873;29;20110;-84
2021/08/20 21:28:08;;;;;;;9.63;4.80;;;;;;;;;;4921342;29;20121;-84
2021/08/20 21:30:39;;;;;;;7.80;3.57;;;;;;;;;;4921673;29;20023;-85
2021/08/20 21:33:04;;;;;;;8.85;3.78;;;;;;;;;;4936520;29;20019;-84
2021/08/20 21:35:30;;;;;;;7.63;3.63;;;;;;;;;;4937155;29;20367;-84
2021/08/20 21:37:55;;;;;;;7.27;3.93;;;;;;;;;;4921335;29;20130;-84
2021/08/20 21:40:20;;;;;;;9.67;4.30;;;;;;;;;;4937265;29;20019;-84
2021/08/20 21:42:46;;;;;;;8.40;4.10;;;;;;;;;;4937075;29;20118;-84
2021/08/20 21:45:11;;;;;;;9.13;4.17;;;;;;;;;;4937051;29;20023;-84
2021/08/20 21:47:37;;;;;;;7.63;4.03;;;;;;;;;;4941048;29;20031;-84
2021/08/20 21:50:05;;;;;;;8.00;4.37;;;;;;;;;;4926299;29;20170;-84
2021/08/20 21:52:32;;;;;;;8.77;4.55;;;;;;;;;;4926667;29;20506;-84
2021/08/20 21:54:57;;;;;;;8.75;4.32;;;;;;;;;;4942968;29;20118;-84
2021/08/20 21:57:23;;;;;;;9.10;4.17;;;;;;;;;;4942847;29;20035;-84
2021/08/20 21:59:48;;;;;;;11.50;4.17;;;;;;;;;;4926760;29;20031;-84
